createdAt,value
2017-02-24T00:00:06.468Z,0
2017-02-24T00:01:05.830Z,0
2017-02-24T00:02:05.448Z,0
2017-02-24T00:03:05.108Z,0
2017-02-24T00:04:05.913Z,0
2017-02-24T00:05:05.937Z,0
2017-02-24T00:06:05.949Z,0
2017-02-24T00:07:05.589Z,0
2017-02-24T00:08:06.016Z,0
2017-02-24T00:09:06.476Z,0
2017-02-24T00:10:05.271Z,0
2017-02-24T00:11:06.501Z,0
2017-02-24T00:12:06.126Z,0
2017-02-24T00:13:06.551Z,0
2017-02-24T00:14:05.774Z,0
2017-02-24T00:15:05.804Z,0
2017-02-24T00:16:06.225Z,0
2017-02-24T00:17:05.478Z,0
2017-02-24T00:18:05.895Z,0
2017-02-24T00:19:06.716Z,0
2017-02-24T00:20:06.753Z,0
2017-02-24T00:21:06.369Z,0
2017-02-24T00:22:06.791Z,0
2017-02-24T00:23:06.018Z,0
2017-02-24T00:24:05.647Z,0
2017-02-24T00:25:06.092Z,0
2017-02-24T00:26:06.760Z,0
2017-02-24T00:27:06.921Z,0
2017-02-24T00:28:05.763Z,0
2017-02-24T00:29:06.991Z,0
2017-02-24T00:30:06.211Z,0
2017-02-24T00:31:06.887Z,0
2017-02-24T00:32:07.061Z,0
2017-02-24T00:33:06.705Z,0
2017-02-24T00:34:07.111Z,0
2017-02-24T00:35:06.373Z,0
2017-02-24T00:36:06.644Z,0
2017-02-24T00:37:07.192Z,0
2017-02-24T00:38:06.449Z,0
2017-02-24T00:39:06.863Z,0
2017-02-24T00:40:06.876Z,0
2017-02-24T00:41:07.159Z,0
2017-02-24T00:42:06.553Z,0
2017-02-24T00:43:06.574Z,0
2017-02-24T00:44:07.094Z,0
2017-02-24T00:45:06.631Z,0
2017-02-24T00:46:07.292Z,0
2017-02-24T00:47:06.668Z,0
2017-02-24T00:48:07.104Z,0
2017-02-24T00:49:07.124Z,0
2017-02-24T00:50:07.560Z,0
2017-02-24T00:51:07.424Z,0
2017-02-24T00:52:06.811Z,0
2017-02-24T00:53:07.249Z,0
2017-02-24T00:54:06.866Z,0
2017-02-24T00:55:06.494Z,0
2017-02-24T00:56:07.567Z,0
2017-02-24T00:57:07.344Z,0
2017-02-24T00:58:06.967Z,0
2017-02-24T00:59:07.426Z,0
2017-02-24T01:00:07.830Z,0
2017-02-24T01:01:07.296Z,0
2017-02-24T01:02:07.903Z,0
2017-02-24T01:03:07.493Z,0
2017-02-24T01:04:07.538Z,0
2017-02-24T01:05:07.965Z,0
2017-02-24T01:06:07.852Z,0
2017-02-24T01:07:08.034Z,0
2017-02-24T01:08:07.635Z,0
2017-02-24T01:09:07.664Z,0
2017-02-24T01:10:08.073Z,0
2017-02-24T01:11:07.982Z,0
2017-02-24T01:12:08.150Z,0
2017-02-24T01:13:07.771Z,0
2017-02-24T01:14:08.189Z,0
2017-02-24T01:15:07.821Z,0
2017-02-24T01:16:08.110Z,0
2017-02-24T01:17:07.899Z,0
2017-02-24T01:18:07.523Z,0
2017-02-24T01:19:08.328Z,0
2017-02-24T01:20:08.364Z,0
2017-02-24T01:21:07.862Z,0
2017-02-24T01:22:07.621Z,0
2017-02-24T01:23:08.436Z,0
2017-02-24T01:24:07.676Z,0
2017-02-24T01:25:07.690Z,0
2017-02-24T01:26:07.986Z,0
2017-02-24T01:27:08.137Z,0
2017-02-24T01:28:07.406Z,0
2017-02-24T01:29:07.812Z,0
2017-02-24T01:30:07.839Z,0
2017-02-24T01:31:08.902Z,0
2017-02-24T01:32:08.671Z,0
2017-02-24T01:33:08.691Z,0
2017-02-24T01:34:08.339Z,0
2017-02-24T01:35:08.351Z,0
2017-02-24T01:36:09.027Z,0
2017-02-24T01:37:08.045Z,0
2017-02-24T01:38:08.043Z,0
2017-02-24T01:39:08.468Z,0
2017-02-24T01:40:08.511Z,0
2017-02-24T01:41:08.384Z,0
2017-02-24T01:42:08.542Z,0
2017-02-24T01:43:08.585Z,0
2017-02-24T01:44:08.612Z,0
2017-02-24T01:45:08.643Z,0
2017-02-24T01:46:08.512Z,0
2017-02-24T01:47:08.685Z,0
2017-02-24T01:48:08.710Z,0
2017-02-24T01:49:07.939Z,0
2017-02-24T01:50:08.775Z,0
2017-02-24T01:51:08.703Z,0
2017-02-24T01:52:09.213Z,0
2017-02-24T01:53:08.854Z,0
2017-02-24T01:54:08.471Z,0
2017-02-24T01:55:08.514Z,0
2017-02-24T01:56:08.788Z,0
2017-02-24T01:57:08.557Z,0
2017-02-24T01:58:09.377Z,0
2017-02-24T01:59:09.411Z,0
2017-02-24T02:00:09.026Z,0
2017-02-24T02:01:09.317Z,0
2017-02-24T02:02:08.290Z,0
2017-02-24T02:03:08.725Z,0
2017-02-24T02:04:09.138Z,0
2017-02-24T02:05:08.771Z,0
2017-02-24T02:06:09.071Z,0
2017-02-24T02:07:09.218Z,0
2017-02-24T02:08:08.457Z,0
2017-02-24T02:09:08.482Z,0
2017-02-24T02:10:09.690Z,0
2017-02-24T02:11:09.595Z,0
2017-02-24T02:12:09.748Z,0
2017-02-24T02:13:09.381Z,0
2017-02-24T02:14:09.805Z,0
2017-02-24T02:15:09.448Z,0
2017-02-24T02:16:09.710Z,0
2017-02-24T02:17:09.484Z,0
2017-02-24T02:18:09.129Z,0
2017-02-24T02:19:09.579Z,0
2017-02-24T02:20:09.167Z,0
2017-02-24T02:21:10.238Z,0
2017-02-24T02:22:09.624Z,0
2017-02-24T02:23:09.250Z,0
2017-02-24T02:24:09.673Z,0
2017-02-24T02:25:09.722Z,0
2017-02-24T02:26:09.981Z,0
2017-02-24T02:27:09.768Z,0
2017-02-24T02:28:09.800Z,0
2017-02-24T02:29:09.821Z,0
2017-02-24T02:30:09.050Z,0
2017-02-24T02:31:10.513Z,0
2017-02-24T02:32:09.104Z,0
2017-02-24T02:33:09.967Z,0
2017-02-24T02:34:09.159Z,0
2017-02-24T02:35:09.565Z,0
2017-02-24T02:36:09.998Z,0
2017-02-24T02:37:10.023Z,0
2017-02-24T02:38:10.060Z,0
2017-02-24T02:39:10.072Z,0
2017-02-24T02:40:10.093Z,0
2017-02-24T02:41:09.729Z,0
2017-02-24T02:42:10.802Z,0
2017-02-24T02:43:10.207Z,0
2017-02-24T02:44:10.216Z,0
2017-02-24T02:45:10.633Z,0
2017-02-24T02:46:09.857Z,0
2017-02-24T02:47:10.930Z,0
2017-02-24T02:48:09.528Z,0
2017-02-24T02:49:10.349Z,0
2017-02-24T02:50:10.768Z,0
2017-02-24T02:51:10.785Z,0
2017-02-24T02:52:10.666Z,0
2017-02-24T02:53:10.038Z,0
2017-02-24T02:54:10.076Z,0
2017-02-24T02:55:10.104Z,0
2017-02-24T02:56:10.524Z,0
2017-02-24T02:57:10.798Z,0
2017-02-24T02:58:10.986Z,0
2017-02-24T02:59:10.198Z,0
2017-02-24T03:00:10.252Z,0
2017-02-24T03:01:10.261Z,0
2017-02-24T03:02:10.945Z,0
2017-02-24T03:03:10.710Z,0
2017-02-24T03:04:10.735Z,0
2017-02-24T03:05:11.184Z,0
2017-02-24T03:06:10.800Z,0
2017-02-24T03:07:11.079Z,0
2017-02-24T03:08:10.853Z,0
2017-02-24T03:09:10.884Z,0
2017-02-24T03:10:10.903Z,0
2017-02-24T03:11:10.920Z,0
2017-02-24T03:12:11.596Z,0
2017-02-24T03:13:10.989Z,0
2017-02-24T03:14:12.330Z,0
2017-02-24T03:15:11.036Z,0
2017-02-24T03:16:11.458Z,0
2017-02-24T03:17:11.339Z,0
2017-02-24T03:18:11.502Z,0
2017-02-24T03:19:10.741Z,0
2017-02-24T03:20:11.162Z,0
2017-02-24T03:21:10.787Z,0
2017-02-24T03:22:10.679Z,0
2017-02-24T03:23:10.864Z,0
2017-02-24T03:24:10.869Z,0
2017-02-24T03:25:11.294Z,0
2017-02-24T03:26:10.567Z,0
2017-02-24T03:27:11.994Z,0
2017-02-24T03:28:11.777Z,0
2017-02-24T03:29:11.397Z,0
2017-02-24T03:30:11.421Z,0
2017-02-24T03:31:11.854Z,0
2017-02-24T03:32:11.739Z,0
2017-02-24T03:33:11.904Z,0
2017-02-24T03:34:11.528Z,0
2017-02-24T03:35:11.560Z,0
2017-02-24T03:36:11.990Z,0
2017-02-24T03:37:11.206Z,0
2017-02-24T03:38:11.239Z,0
2017-02-24T03:39:11.272Z,0
2017-02-24T03:40:11.292Z,0
2017-02-24T03:41:11.308Z,0
2017-02-24T03:42:12.173Z,0
2017-02-24T03:43:12.174Z,0
2017-02-24T03:44:12.197Z,0
2017-02-24T03:45:11.463Z,0
2017-02-24T03:46:11.471Z,0
2017-02-24T03:47:12.277Z,0
2017-02-24T03:48:12.305Z,0
2017-02-24T03:49:11.950Z,0
2017-02-24T03:50:11.560Z,0
2017-02-24T03:51:11.599Z,0
2017-02-24T03:52:11.999Z,0
2017-02-24T03:53:12.432Z,0
2017-02-24T03:54:11.665Z,0
2017-02-24T03:55:11.686Z,0
2017-02-24T03:56:12.109Z,0
2017-02-24T03:57:11.739Z,0
2017-02-24T03:58:12.419Z,0
2017-02-24T03:59:11.436Z,0
2017-02-24T04:00:11.429Z,0
2017-02-24T04:01:12.245Z,0
2017-02-24T04:02:12.674Z,0
2017-02-24T04:03:12.563Z,0
2017-02-24T04:04:12.318Z,0
2017-02-24T04:05:12.363Z,0
2017-02-24T04:06:11.987Z,0
2017-02-24T04:07:12.805Z,0
2017-02-24T04:08:12.701Z,0
2017-02-24T04:09:12.463Z,0
2017-02-24T04:10:12.501Z,0
2017-02-24T04:11:12.134Z,0
2017-02-24T04:12:12.535Z,0
2017-02-24T04:13:12.416Z,0
2017-02-24T04:14:12.214Z,0
2017-02-24T04:15:12.610Z,0
2017-02-24T04:16:11.846Z,0
2017-02-24T04:17:12.267Z,0
2017-02-24T04:18:12.939Z,0
2017-02-24T04:19:13.130Z,0
2017-02-24T04:20:13.140Z,0
2017-02-24T04:21:12.776Z,0
2017-02-24T04:22:12.786Z,0
2017-02-24T04:23:13.072Z,0
2017-02-24T04:24:12.452Z,0
2017-02-24T04:25:12.552Z,0
2017-02-24T04:26:12.913Z,0
2017-02-24T04:27:12.526Z,0
2017-02-24T04:28:12.410Z,0
2017-02-24T04:29:13.376Z,0
2017-02-24T04:30:13.407Z,0
2017-02-24T04:31:13.436Z,0
2017-02-24T04:32:13.068Z,0
2017-02-24T04:33:13.347Z,0
2017-02-24T04:34:12.719Z,0
2017-02-24T04:35:13.136Z,0
2017-02-24T04:36:13.161Z,0
2017-02-24T04:37:13.602Z,0
2017-02-24T04:38:13.875Z,0
2017-02-24T04:39:13.643Z,0
2017-02-24T04:40:12.872Z,0
2017-02-24T04:41:13.317Z,0
2017-02-24T04:42:13.733Z,0
2017-02-24T04:43:13.611Z,0
2017-02-24T04:44:13.375Z,0
2017-02-24T04:45:13.811Z,0
2017-02-24T04:46:13.437Z,0
2017-02-24T04:47:13.862Z,0
2017-02-24T04:48:13.338Z,0
2017-02-24T04:49:13.134Z,0
2017-02-24T04:50:13.152Z,0
2017-02-24T04:51:13.569Z,0
2017-02-24T04:52:12.797Z,0
2017-02-24T04:53:14.274Z,0
2017-02-24T04:54:13.665Z,0
2017-02-24T04:55:13.689Z,0
2017-02-24T04:56:13.700Z,0
2017-02-24T04:57:13.729Z,0
2017-02-24T04:58:13.997Z,0
2017-02-24T04:59:13.392Z,0
2017-02-24T05:00:13.412Z,0
2017-02-24T05:01:13.438Z,0
2017-02-24T05:02:13.853Z,0
2017-02-24T05:03:14.145Z,0
2017-02-24T05:04:13.909Z,0
2017-02-24T05:05:13.952Z,0
2017-02-24T05:06:13.961Z,0
2017-02-24T05:07:13.997Z,0
2017-02-24T05:08:14.269Z,0
2017-02-24T05:09:13.666Z,0
2017-02-24T05:10:14.071Z,0
2017-02-24T05:11:13.696Z,0
2017-02-24T05:12:14.120Z,0
2017-02-24T05:13:14.805Z,0
2017-02-24T05:14:13.778Z,0
2017-02-24T05:15:14.603Z,0
2017-02-24T05:16:14.222Z,0
2017-02-24T05:17:14.244Z,0
2017-02-24T05:18:14.925Z,0
2017-02-24T05:19:14.302Z,0
2017-02-24T05:20:14.331Z,0
2017-02-24T05:21:13.971Z,0
2017-02-24T05:22:13.979Z,0
2017-02-24T05:23:14.273Z,0
2017-02-24T05:24:14.070Z,0
2017-02-24T05:25:14.862Z,0
2017-02-24T05:26:14.105Z,0
2017-02-24T05:27:14.112Z,0
2017-02-24T05:28:14.409Z,0
2017-02-24T05:29:14.565Z,0
2017-02-24T05:30:14.210Z,0
2017-02-24T05:31:13.828Z,0
2017-02-24T05:32:14.655Z,0
2017-02-24T05:33:15.329Z,0
2017-02-24T05:34:15.101Z,0
2017-02-24T05:35:14.733Z,0
2017-02-24T05:36:14.773Z,0
2017-02-24T05:37:14.424Z,0
2017-02-24T05:38:15.448Z,0
2017-02-24T05:39:14.858Z,0
2017-02-24T05:40:15.268Z,0
2017-02-24T05:41:14.883Z,0
2017-02-24T05:42:14.908Z,0
2017-02-24T05:43:15.588Z,0
2017-02-24T05:44:15.372Z,0
2017-02-24T05:45:15.386Z,0
2017-02-24T05:46:14.639Z,0
2017-02-24T05:47:15.471Z,0
2017-02-24T05:48:15.733Z,0
2017-02-24T05:49:15.106Z,0
2017-02-24T05:50:15.531Z,0
2017-02-24T05:51:14.759Z,0
2017-02-24T05:52:15.597Z,0
2017-02-24T05:53:15.057Z,0
2017-02-24T05:54:15.230Z,0
2017-02-24T05:55:15.270Z,0
2017-02-24T05:56:15.296Z,0
2017-02-24T05:57:14.956Z,0
2017-02-24T05:58:15.601Z,0
2017-02-24T05:59:15.754Z,0
2017-02-24T06:00:14.999Z,0
2017-02-24T06:01:15.411Z,0
2017-02-24T06:02:15.464Z,0
2017-02-24T06:03:16.140Z,0
2017-02-24T06:04:14.714Z,4
2017-02-24T06:05:15.527Z,4
2017-02-24T06:06:15.159Z,4
2017-02-24T06:07:14.780Z,4
2017-02-24T06:08:14.820Z,4
2017-02-24T06:09:15.235Z,4
2017-02-24T06:10:16.058Z,8
2017-02-24T06:11:15.692Z,12
2017-02-24T06:12:15.313Z,12
2017-02-24T06:13:15.733Z,12
2017-02-24T06:14:15.375Z,12
2017-02-24T06:15:15.383Z,16
2017-02-24T06:16:15.439Z,16
2017-02-24T06:17:16.240Z,20
2017-02-24T06:18:15.100Z,24
2017-02-24T06:19:15.750Z,24
2017-02-24T06:20:15.938Z,28
2017-02-24T06:21:15.566Z,32
2017-02-24T06:22:15.593Z,36
2017-02-24T06:23:15.622Z,44
2017-02-24T06:24:15.890Z,44
2017-02-24T06:25:16.459Z,48
2017-02-24T06:26:16.083Z,52
2017-02-24T06:27:16.509Z,60
2017-02-24T06:28:16.145Z,64
2017-02-24T06:29:16.817Z,72
2017-02-24T06:30:16.587Z,76
2017-02-24T06:31:15.873Z,80
2017-02-24T06:32:15.844Z,84
2017-02-24T06:33:16.271Z,92
2017-02-24T06:34:16.166Z,104
2017-02-24T06:35:16.723Z,108
2017-02-24T06:36:15.945Z,120
2017-02-24T06:37:16.388Z,132
2017-02-24T06:38:16.409Z,136
2017-02-24T06:39:16.298Z,148
2017-02-24T06:40:16.077Z,156
2017-02-24T06:41:16.895Z,168
2017-02-24T06:42:16.925Z,180
2017-02-24T06:43:16.533Z,196
2017-02-24T06:44:16.834Z,204
2017-02-24T06:45:16.583Z,212
2017-02-24T06:46:16.624Z,224
2017-02-24T06:47:16.639Z,232
2017-02-24T06:48:16.285Z,248
2017-02-24T06:49:17.346Z,272
2017-02-24T06:50:16.735Z,308
2017-02-24T06:51:16.360Z,396
2017-02-24T06:52:16.381Z,448
2017-02-24T06:53:16.806Z,400
2017-02-24T06:54:17.085Z,580
2017-02-24T06:55:17.266Z,520
2017-02-24T06:56:16.881Z,396
2017-02-24T06:57:17.317Z,396
2017-02-24T06:58:16.541Z,404
2017-02-24T06:59:17.230Z,412
2017-02-24T07:00:17.007Z,416
2017-02-24T07:01:17.031Z,404
2017-02-24T07:02:17.437Z,408
2017-02-24T07:03:17.074Z,408
2017-02-24T07:04:17.353Z,424
2017-02-24T07:05:17.527Z,448
2017-02-24T07:06:16.765Z,488
2017-02-24T07:07:17.593Z,540
2017-02-24T07:08:17.214Z,744
2017-02-24T07:09:17.499Z,1368
2017-02-24T07:10:17.654Z,1616
2017-02-24T07:11:17.293Z,2344
2017-02-24T07:12:17.323Z,2532
2017-02-24T07:13:17.353Z,2592
2017-02-24T07:14:17.258Z,2536
2017-02-24T07:15:17.015Z,2468
2017-02-24T07:16:17.026Z,2144
2017-02-24T07:17:17.841Z,1200
2017-02-24T07:18:17.474Z,892
2017-02-24T07:19:18.151Z,724
2017-02-24T07:20:16.744Z,720
2017-02-24T07:21:17.567Z,864
2017-02-24T07:22:17.589Z,1000
2017-02-24T07:23:17.606Z,1968
2017-02-24T07:24:17.894Z,2744
2017-02-24T07:25:17.677Z,2728
2017-02-24T07:26:17.712Z,2608
2017-02-24T07:27:17.738Z,2076
2017-02-24T07:28:17.746Z,1984
2017-02-24T07:29:18.428Z,1800
2017-02-24T07:30:17.811Z,1412
2017-02-24T07:31:17.836Z,1404
2017-02-24T07:32:17.457Z,1732
2017-02-24T07:33:17.885Z,1940
2017-02-24T07:34:18.578Z,1580
2017-02-24T07:35:17.547Z,1448
2017-02-24T07:36:18.393Z,1204
2017-02-24T07:37:17.997Z,1012
2017-02-24T07:38:18.018Z,1136
2017-02-24T07:39:17.646Z,1220
2017-02-24T07:40:18.471Z,1100
2017-02-24T07:41:18.508Z,1260
2017-02-24T07:42:17.733Z,1444
2017-02-24T07:43:18.573Z,1480
2017-02-24T07:44:18.589Z,1880
2017-02-24T07:45:17.822Z,1956
2017-02-24T07:46:18.236Z,1888
2017-02-24T07:47:18.717Z,1852
2017-02-24T07:48:17.899Z,1824
2017-02-24T07:49:17.931Z,1796
2017-02-24T07:50:19.011Z,1760
2017-02-24T07:51:18.380Z,1680
2017-02-24T07:52:18.397Z,1372
2017-02-24T07:53:18.030Z,1680
2017-02-24T07:54:18.470Z,1780
2017-02-24T07:55:18.338Z,1916
2017-02-24T07:56:17.740Z,1936
2017-02-24T07:57:18.160Z,1952
2017-02-24T07:58:18.206Z,2092
2017-02-24T07:59:18.601Z,1844
2017-02-24T08:00:18.884Z,1864
2017-02-24T08:01:19.052Z,1352
2017-02-24T08:02:18.292Z,1200
2017-02-24T08:03:18.329Z,1164
2017-02-24T08:04:18.734Z,1152
2017-02-24T08:05:18.255Z,1176
2017-02-24T08:06:18.783Z,1176
2017-02-24T08:07:18.421Z,1228
2017-02-24T08:08:18.441Z,1300
2017-02-24T08:09:18.890Z,1380
2017-02-24T08:10:19.563Z,1508
2017-02-24T08:11:18.131Z,1608
2017-02-24T08:12:18.564Z,1628
2017-02-24T08:13:18.999Z,1844
2017-02-24T08:14:19.046Z,1852
2017-02-24T08:15:19.290Z,2024
2017-02-24T08:16:19.454Z,1888
2017-02-24T08:17:18.699Z,1916
2017-02-24T08:18:19.132Z,1976
2017-02-24T08:19:19.558Z,1700
2017-02-24T08:20:19.032Z,1552
2017-02-24T08:21:18.807Z,1504
2017-02-24T08:22:19.262Z,1600
2017-02-24T08:23:19.252Z,1880
2017-02-24T08:24:19.277Z,1928
2017-02-24T08:25:19.558Z,2312
2017-02-24T08:26:18.951Z,2480
2017-02-24T08:27:18.584Z,2496
2017-02-24T08:28:18.993Z,2716
2017-02-24T08:29:19.042Z,3304
2017-02-24T08:30:18.910Z,3424
2017-02-24T08:31:19.870Z,3412
2017-02-24T08:32:19.496Z,3652
2017-02-24T08:33:19.957Z,4484
2017-02-24T08:34:19.166Z,6952
2017-02-24T08:35:19.850Z,8040
2017-02-24T08:36:19.227Z,9148
2017-02-24T08:37:19.635Z,12216
2017-02-24T08:38:18.871Z,15392
2017-02-24T08:39:18.908Z,17184
2017-02-24T08:40:19.993Z,19680
2017-02-24T08:41:19.396Z,14844
2017-02-24T08:42:19.803Z,18560
2017-02-24T08:43:20.229Z,19744
2017-02-24T08:44:20.228Z,29408
2017-02-24T08:45:20.573Z,13424
2017-02-24T08:46:19.511Z,21504
2017-02-24T08:47:19.910Z,3828
2017-02-24T08:48:20.360Z,4692
2017-02-24T08:49:19.580Z,3932
2017-02-24T08:50:20.277Z,6396
2017-02-24T08:51:20.445Z,2528
2017-02-24T08:52:20.070Z,2364
2017-02-24T08:53:20.108Z,2496
2017-02-24T08:54:20.117Z,1888
2017-02-24T08:55:20.405Z,2212
2017-02-24T08:56:20.165Z,2132
2017-02-24T08:57:20.616Z,2060
2017-02-24T08:58:20.227Z,2852
2017-02-24T08:59:20.659Z,2732
2017-02-24T09:00:20.949Z,2672
2017-02-24T09:01:20.322Z,2708
2017-02-24T09:02:20.362Z,2748
2017-02-24T09:03:20.775Z,2748
2017-02-24T09:04:20.388Z,2328
2017-02-24T09:05:19.909Z,2456
2017-02-24T09:06:20.073Z,2308
2017-02-24T09:07:20.099Z,1984
2017-02-24T09:08:20.114Z,2528
2017-02-24T09:09:20.131Z,2744
2017-02-24T09:10:20.834Z,1972
2017-02-24T09:11:21.009Z,1784
2017-02-24T09:12:20.618Z,1676
2017-02-24T09:13:21.042Z,1472
2017-02-24T09:14:21.074Z,1652
2017-02-24T09:15:21.411Z,2768
2017-02-24T09:16:19.945Z,2356
2017-02-24T09:17:20.813Z,2176
2017-02-24T09:18:20.381Z,2752
2017-02-24T09:19:20.450Z,1940
2017-02-24T09:20:21.483Z,1832
2017-02-24T09:21:20.492Z,2720
2017-02-24T09:22:21.313Z,2956
2017-02-24T09:23:21.322Z,2464
2017-02-24T09:24:20.587Z,2316
2017-02-24T09:25:21.651Z,2260
2017-02-24T09:26:21.028Z,2680
2017-02-24T09:27:20.636Z,3140
2017-02-24T09:28:21.450Z,2856
2017-02-24T09:29:21.099Z,1872
2017-02-24T09:30:20.715Z,1448
2017-02-24T09:31:21.156Z,1544
2017-02-24T09:32:21.229Z,1876
2017-02-24T09:33:21.221Z,1988
2017-02-24T09:34:20.831Z,2424
2017-02-24T09:35:20.458Z,2896
2017-02-24T09:36:21.284Z,2900
2017-02-24T09:37:20.919Z,2904
2017-02-24T09:38:21.332Z,2944
2017-02-24T09:39:21.370Z,2288
2017-02-24T09:40:21.382Z,2252
2017-02-24T09:41:21.816Z,2508
2017-02-24T09:42:21.853Z,2456
2017-02-24T09:43:21.072Z,1768
2017-02-24T09:44:21.493Z,1572
2017-02-24T09:45:21.542Z,1864
2017-02-24T09:46:21.175Z,2328
2017-02-24T09:47:21.604Z,2580
2017-02-24T09:48:21.209Z,2140
2017-02-24T09:49:21.269Z,1720
2017-02-24T09:50:22.086Z,1444
2017-02-24T09:51:21.692Z,1244
2017-02-24T09:52:21.336Z,1292
2017-02-24T09:53:21.352Z,1356
2017-02-24T09:54:21.385Z,1216
2017-02-24T09:55:22.207Z,1156
2017-02-24T09:56:22.223Z,1184
2017-02-24T09:57:21.875Z,1324
2017-02-24T09:58:21.884Z,1572
2017-02-24T09:59:21.169Z,1756
2017-02-24T10:00:21.937Z,2268
2017-02-24T10:01:22.231Z,2928
2017-02-24T10:02:21.990Z,3184
2017-02-24T10:03:22.043Z,3196
2017-02-24T10:04:22.048Z,3404
2017-02-24T10:05:22.100Z,3776
2017-02-24T10:06:22.358Z,4044
2017-02-24T10:07:21.754Z,3744
2017-02-24T10:08:22.563Z,3736
2017-02-24T10:09:21.796Z,4276
2017-02-24T10:10:22.236Z,4896
2017-02-24T10:11:22.489Z,4352
2017-02-24T10:12:22.285Z,4632
2017-02-24T10:13:21.900Z,4228
2017-02-24T10:14:21.923Z,4172
2017-02-24T10:15:22.744Z,4152
2017-02-24T10:16:23.044Z,4312
2017-02-24T10:17:22.405Z,4220
2017-02-24T10:18:22.066Z,4100
2017-02-24T10:19:22.063Z,4588
2017-02-24T10:20:22.107Z,4952
2017-02-24T10:21:22.769Z,4848
2017-02-24T10:22:22.933Z,4884
2017-02-24T10:23:22.962Z,4888
2017-02-24T10:24:23.002Z,4816
2017-02-24T10:25:22.635Z,4156
2017-02-24T10:26:22.904Z,4680
2017-02-24T10:27:22.297Z,4852
2017-02-24T10:28:22.721Z,4636
2017-02-24T10:29:22.737Z,4632
2017-02-24T10:30:22.775Z,4744
2017-02-24T10:31:22.642Z,5200
2017-02-24T10:32:23.232Z,5708
2017-02-24T10:33:22.047Z,5980
2017-02-24T10:34:22.474Z,5544
2017-02-24T10:35:22.905Z,5100
2017-02-24T10:36:23.571Z,5256
2017-02-24T10:37:23.348Z,4584
2017-02-24T10:38:23.385Z,2740
2017-02-24T10:39:23.009Z,2172
2017-02-24T10:40:23.033Z,1664
2017-02-24T10:41:23.310Z,1668
2017-02-24T10:42:22.700Z,1748
2017-02-24T10:43:23.142Z,2008
2017-02-24T10:44:23.169Z,2388
2017-02-24T10:45:23.202Z,2456
2017-02-24T10:46:23.451Z,2520
2017-02-24T10:47:22.447Z,2520
2017-02-24T10:48:22.863Z,2816
2017-02-24T10:49:22.896Z,3420
2017-02-24T10:50:23.718Z,3888
2017-02-24T10:51:24.002Z,4200
2017-02-24T10:52:23.767Z,4344
2017-02-24T10:53:22.996Z,4472
2017-02-24T10:54:23.252Z,4400
2017-02-24T10:55:23.453Z,4552
2017-02-24T10:56:23.333Z,4456
2017-02-24T10:57:23.909Z,4732
2017-02-24T10:58:23.141Z,4804
2017-02-24T10:59:23.568Z,4760
2017-02-24T11:00:23.183Z,4700
2017-02-24T11:01:23.889Z,4612
2017-02-24T11:02:23.635Z,4420
2017-02-24T11:03:24.070Z,4404
2017-02-24T11:04:24.085Z,4608
2017-02-24T11:05:23.720Z,4716
2017-02-24T11:06:24.001Z,4772
2017-02-24T11:07:23.810Z,4808
2017-02-24T11:08:23.419Z,4676
2017-02-24T11:09:23.824Z,4464
2017-02-24T11:10:23.892Z,4612
2017-02-24T11:11:23.501Z,4256
2017-02-24T11:12:24.318Z,3752
2017-02-24T11:13:23.937Z,4112
2017-02-24T11:14:23.589Z,4836
2017-02-24T11:15:23.988Z,5548
2017-02-24T11:16:24.034Z,5580
2017-02-24T11:17:24.054Z,5616
2017-02-24T11:18:24.091Z,5616
2017-02-24T11:19:24.109Z,5520
2017-02-24T11:20:24.538Z,5608
2017-02-24T11:21:24.155Z,6456
2017-02-24T11:22:23.800Z,5608
2017-02-24T11:23:23.838Z,5496
2017-02-24T11:24:23.855Z,5604
2017-02-24T11:25:23.872Z,5408
2017-02-24T11:26:24.331Z,5148
2017-02-24T11:27:23.925Z,5156
2017-02-24T11:28:24.370Z,4976
2017-02-24T11:29:23.995Z,4812
2017-02-24T11:30:24.415Z,5516
2017-02-24T11:31:24.839Z,5184
2017-02-24T11:32:24.478Z,5984
2017-02-24T11:33:24.494Z,6220
2017-02-24T11:34:24.926Z,6036
2017-02-24T11:35:24.162Z,7948
2017-02-24T11:36:24.576Z,6616
2017-02-24T11:37:24.607Z,7224
2017-02-24T11:38:24.237Z,6764
2017-02-24T11:39:24.262Z,7464
2017-02-24T11:40:24.287Z,7644
2017-02-24T11:41:24.320Z,7708
2017-02-24T11:42:24.996Z,7820
2017-02-24T11:43:25.185Z,8880
2017-02-24T11:44:25.202Z,8560
2017-02-24T11:45:25.229Z,10032
2017-02-24T11:46:24.863Z,8628
2017-02-24T11:47:25.527Z,8216
2017-02-24T11:48:24.912Z,7664
2017-02-24T11:49:24.537Z,8152
2017-02-24T11:50:24.162Z,8476
2017-02-24T11:51:24.235Z,8260
2017-02-24T11:52:25.262Z,6876
2017-02-24T11:53:25.069Z,6872
2017-02-24T11:54:24.286Z,6256
2017-02-24T11:55:25.514Z,6736
2017-02-24T11:56:25.531Z,6536
2017-02-24T11:57:25.015Z,6052
2017-02-24T11:58:24.795Z,6088
2017-02-24T11:59:25.631Z,5696
2017-02-24T12:00:25.642Z,5568
2017-02-24T12:01:25.684Z,6196
2017-02-24T12:02:25.163Z,7228
2017-02-24T12:03:25.336Z,7088
2017-02-24T12:04:25.376Z,7608
2017-02-24T12:05:24.993Z,7532
2017-02-24T12:06:25.478Z,7448
2017-02-24T12:07:26.143Z,7292
2017-02-24T12:08:25.068Z,6884
2017-02-24T12:09:25.493Z,7440
2017-02-24T12:10:25.146Z,9272
2017-02-24T12:11:25.558Z,10324
2017-02-24T12:12:25.833Z,8984
2017-02-24T12:13:25.615Z,13544
2017-02-24T12:14:25.241Z,14396
2017-02-24T12:15:26.062Z,17388
2017-02-24T12:16:26.102Z,30592
2017-02-24T12:17:26.386Z,29408
2017-02-24T12:18:25.358Z,11472
2017-02-24T12:19:25.789Z,6884
2017-02-24T12:20:26.213Z,7060
2017-02-24T12:21:25.446Z,7868
2017-02-24T12:22:26.502Z,7752
2017-02-24T12:23:25.892Z,7932
2017-02-24T12:24:26.309Z,7936
2017-02-24T12:25:26.349Z,7316
2017-02-24T12:26:25.589Z,10008
2017-02-24T12:27:26.663Z,12360
2017-02-24T12:28:26.447Z,16836
2017-02-24T12:29:25.680Z,18336
2017-02-24T12:30:25.696Z,3768
2017-02-24T12:31:26.123Z,3960
2017-02-24T12:32:26.429Z,4028
2017-02-24T12:33:25.777Z,4572
2017-02-24T12:34:25.811Z,3280
2017-02-24T12:35:26.232Z,3344
2017-02-24T12:36:25.888Z,2824
2017-02-24T12:37:26.149Z,2744
2017-02-24T12:38:25.942Z,2776
2017-02-24T12:39:26.362Z,2672
2017-02-24T12:40:26.775Z,2636
2017-02-24T12:41:26.812Z,2772
2017-02-24T12:42:26.289Z,2904
2017-02-24T12:43:26.471Z,2776
2017-02-24T12:44:26.106Z,2416
2017-02-24T12:45:26.531Z,2048
2017-02-24T12:46:26.158Z,1804
2017-02-24T12:47:26.037Z,1776
2017-02-24T12:48:25.814Z,1964
2017-02-24T12:49:26.263Z,2328
2017-02-24T12:50:26.651Z,2796
2017-02-24T12:51:26.705Z,3284
2017-02-24T12:52:26.221Z,3780
2017-02-24T12:53:27.145Z,4192
2017-02-24T12:54:27.171Z,4440
2017-02-24T12:55:26.823Z,4804
2017-02-24T12:56:27.239Z,5016
2017-02-24T12:57:26.705Z,4980
2017-02-24T12:58:26.889Z,4860
2017-02-24T12:59:26.910Z,4568
2017-02-24T13:00:27.339Z,6096
2017-02-24T13:01:26.583Z,4064
2017-02-24T13:02:27.248Z,4044
2017-02-24T13:03:26.233Z,3860
2017-02-24T13:04:27.084Z,4344
2017-02-24T13:05:27.463Z,5260
2017-02-24T13:06:26.720Z,7856
2017-02-24T13:07:27.407Z,8856
2017-02-24T13:08:27.591Z,6876
2017-02-24T13:09:27.197Z,6172
2017-02-24T13:10:27.645Z,5048
2017-02-24T13:11:26.852Z,5976
2017-02-24T13:12:27.530Z,7384
2017-02-24T13:13:26.900Z,7004
2017-02-24T13:14:26.952Z,7168
2017-02-24T13:15:27.366Z,8808
2017-02-24T13:16:27.399Z,10404
2017-02-24T13:17:27.667Z,11652
2017-02-24T13:18:27.441Z,12440
2017-02-24T13:19:27.873Z,12576
2017-02-24T13:20:27.506Z,10748
2017-02-24T13:21:27.544Z,12040
2017-02-24T13:22:27.816Z,12380
2017-02-24T13:23:27.612Z,11108
2017-02-24T13:24:27.240Z,7980
2017-02-24T13:25:28.042Z,5512
2017-02-24T13:26:27.278Z,5916
2017-02-24T13:27:28.335Z,7228
2017-02-24T13:28:28.120Z,8624
2017-02-24T13:29:27.369Z,7108
2017-02-24T13:30:27.785Z,6416
2017-02-24T13:31:27.822Z,6024
2017-02-24T13:32:28.098Z,5692
2017-02-24T13:33:28.272Z,5100
2017-02-24T13:34:28.299Z,6148
2017-02-24T13:35:27.944Z,5740
2017-02-24T13:36:27.966Z,5560
2017-02-24T13:37:27.591Z,5692
2017-02-24T13:38:28.423Z,6084
2017-02-24T13:39:28.043Z,6328
2017-02-24T13:40:28.080Z,6912
2017-02-24T13:41:27.705Z,5952
2017-02-24T13:42:28.125Z,5984
2017-02-24T13:43:28.155Z,6056
2017-02-24T13:44:27.395Z,6128
2017-02-24T13:45:27.825Z,6728
2017-02-24T13:46:28.245Z,6112
2017-02-24T13:47:28.278Z,5612
2017-02-24T13:48:28.302Z,5312
2017-02-24T13:49:28.331Z,6020
2017-02-24T13:50:27.967Z,4972
2017-02-24T13:51:27.588Z,4248
2017-02-24T13:52:28.800Z,4800
2017-02-24T13:53:28.062Z,3424
2017-02-24T13:54:28.870Z,2584
2017-02-24T13:55:28.487Z,1988
2017-02-24T13:56:28.129Z,1888
2017-02-24T13:57:28.550Z,2272